createdAt,value
2018-03-25T00:00:00.913Z,0.79
2018-03-25T00:01:00.641Z,0.78
2018-03-25T00:02:00.877Z,0.83
2018-03-25T00:03:00.863Z,0.78
2018-03-25T00:04:00.850Z,0.72
2018-03-25T00:05:00.583Z,0.72
2018-03-25T00:06:00.578Z,0.73
2018-03-25T00:07:00.803Z,0.8
2018-03-25T00:08:00.785Z,0.78
2018-03-25T00:09:00.777Z,0.76
2018-03-25T00:10:00.756Z,0.79
2018-03-25T00:11:00.487Z,0.8
2018-03-25T00:12:00.728Z,0.72
2018-03-25T00:13:00.711Z,0.73
2018-03-25T00:14:00.701Z,0.65
2018-03-25T00:15:00.931Z,0.66
2018-03-25T00:16:00.675Z,0.68
2018-03-25T00:17:00.651Z,0.66
2018-03-25T00:18:00.640Z,0.61
2018-03-25T00:19:00.675Z,0.62
2018-03-25T00:20:00.352Z,0.73
2018-03-25T00:21:00.583Z,0.55
2018-03-25T00:22:00.571Z,0.66
2018-03-25T00:23:00.757Z,0.57
2018-03-25T00:24:00.545Z,0.68
2018-03-25T00:25:00.536Z,0.55
2018-03-25T00:26:00.518Z,0.53
2018-03-25T00:26:59.986Z,0.58
2018-03-25T00:28:00.243Z,0.55
2018-03-25T00:29:00.468Z,0.61
2018-03-25T00:30:00.454Z,0.65
2018-03-25T00:31:00.186Z,0.58
2018-03-25T00:32:00.421Z,0.62
2018-03-25T00:33:00.145Z,0.5
2018-03-25T00:34:00.387Z,0.6
2018-03-25T00:35:00.369Z,0.5
2018-03-25T00:36:00.109Z,0.57
2018-03-25T00:37:00.339Z,0.47
2018-03-25T00:38:00.320Z,0.47
2018-03-25T00:39:00.315Z,0.58
2018-03-25T00:40:00.297Z,0.51
2018-03-25T00:41:00.275Z,0.46
2018-03-25T00:42:00.262Z,0.51
2018-03-25T00:43:00.245Z,0.46
2018-03-25T00:44:00.230Z,0.49
2018-03-25T00:44:59.964Z,0.49
2018-03-25T00:46:00.193Z,0.51
2018-03-25T00:46:59.979Z,0.46
2018-03-25T00:47:59.912Z,0.46
2018-03-25T00:49:00.155Z,0.5
2018-03-25T00:50:00.133Z,0.57
2018-03-25T00:51:00.125Z,0.53
2018-03-25T00:51:59.853Z,0.5
2018-03-25T00:53:00.158Z,0.44
2018-03-25T00:54:00.081Z,0.5
2018-03-25T00:55:00.062Z,0.5
2018-03-25T00:56:00.043Z,0.5
2018-03-25T00:57:00.026Z,0.47
2018-03-25T00:58:00.012Z,0.47
2018-03-25T00:58:59.995Z,0.57
2018-03-25T00:59:59.993Z,0.53
2018-03-25T01:00:59.962Z,0.55
2018-03-25T01:01:59.963Z,0.47
2018-03-25T01:02:59.932Z,0.51
2018-03-25T01:03:59.916Z,0.51
2018-03-25T01:04:59.904Z,0.51
2018-03-25T01:05:59.634Z,0.49
2018-03-25T01:06:59.872Z,0.49
2018-03-25T01:07:59.605Z,0.44
2018-03-25T01:08:59.840Z,0.5
2018-03-25T01:09:59.836Z,0.44
2018-03-25T01:10:59.819Z,0.47
2018-03-25T01:11:59.788Z,0.5
2018-03-25T01:12:59.776Z,0.44
2018-03-25T01:13:59.761Z,0.49
2018-03-25T01:14:59.239Z,0.57
2018-03-25T01:15:59.729Z,0.53
2018-03-25T01:16:59.714Z,0.44
2018-03-25T01:17:59.448Z,0.5
2018-03-25T01:18:59.686Z,0.44
2018-03-25T01:19:59.672Z,0.38
2018-03-25T01:20:59.659Z,0.51
2018-03-25T01:21:59.129Z,0.47
2018-03-25T01:22:59.619Z,0.46
2018-03-25T01:23:59.605Z,0.47
2018-03-25T01:24:59.613Z,0.53
2018-03-25T01:25:59.578Z,0.47
2018-03-25T01:26:59.305Z,0.44
2018-03-25T01:27:59.546Z,0.49
2018-03-25T01:28:59.526Z,0.42
2018-03-25T01:29:59.523Z,0.46
2018-03-25T01:30:58.989Z,0.5
2018-03-25T01:31:58.974Z,0.49
2018-03-25T01:32:59.462Z,0.68
2018-03-25T01:33:59.449Z,0.41
2018-03-25T01:34:59.432Z,0.46
2018-03-25T01:35:59.417Z,0.47
2018-03-25T01:36:59.416Z,0.5
2018-03-25T01:37:59.384Z,0.61
2018-03-25T01:38:59.370Z,0.55
2018-03-25T01:39:59.357Z,0.49
2018-03-25T01:40:59.338Z,0.49
2018-03-25T01:41:59.333Z,0.49
2018-03-25T01:42:59.307Z,0.55
2018-03-25T01:43:59.296Z,0.51
2018-03-25T01:44:59.048Z,0.5
2018-03-25T01:45:59.262Z,0.5
2018-03-25T01:46:59.253Z,0.41
2018-03-25T01:47:59.233Z,0.5
2018-03-25T01:48:59.217Z,0.55
2018-03-25T01:49:59.202Z,0.53
2018-03-25T01:50:59.190Z,0.51
2018-03-25T01:51:59.172Z,0.55
2018-03-25T01:52:58.899Z,0.49
2018-03-25T01:53:59.135Z,0.53
2018-03-25T01:54:59.125Z,0.53
2018-03-25T01:55:58.854Z,0.42
2018-03-25T01:56:59.089Z,0.5
2018-03-25T01:57:59.087Z,0.47
2018-03-25T01:58:58.804Z,0.51
2018-03-25T01:59:59.057Z,0.44
2018-03-25T02:00:59.030Z,0.5
2018-03-25T02:01:59.015Z,0.49
2018-03-25T02:02:59.003Z,0.39
2018-03-25T02:03:58.977Z,0.42
2018-03-25T02:04:58.964Z,0.47
2018-03-25T02:05:58.954Z,0.46
2018-03-25T02:06:58.932Z,0.44
2018-03-25T02:07:58.917Z,0.44
2018-03-25T02:08:58.649Z,0.41
2018-03-25T02:09:58.641Z,0.44
2018-03-25T02:10:58.615Z,0.47
2018-03-25T02:11:58.854Z,0.49
2018-03-25T02:12:58.584Z,0.47
2018-03-25T02:13:58.831Z,0.5
2018-03-25T02:14:58.814Z,0.5
2018-03-25T02:15:58.809Z,0.46
2018-03-25T02:16:58.779Z,0.44
2018-03-25T02:17:58.770Z,0.5
2018-03-25T02:18:58.745Z,0.41
2018-03-25T02:19:58.730Z,0.46
2018-03-25T02:20:58.712Z,0.46
2018-03-25T02:21:58.696Z,0.5
2018-03-25T02:22:58.727Z,0.44
2018-03-25T02:23:58.671Z,0.41
2018-03-25T02:24:58.654Z,0.46
2018-03-25T02:25:58.638Z,0.47
2018-03-25T02:26:58.628Z,0.55
2018-03-25T02:27:58.773Z,0.44
2018-03-25T02:28:58.595Z,0.5
2018-03-25T02:29:58.580Z,0.46
2018-03-25T02:30:58.578Z,0.46
2018-03-25T02:31:58.548Z,0.49
2018-03-25T02:32:58.286Z,0.51
2018-03-25T02:33:58.519Z,0.49
2018-03-25T02:34:58.502Z,0.46
2018-03-25T02:35:58.240Z,0.47
2018-03-25T02:36:58.464Z,0.46
2018-03-25T02:37:58.452Z,0.47
2018-03-25T02:38:58.430Z,0.47
2018-03-25T02:39:58.434Z,0.49
2018-03-25T02:40:58.415Z,0.47
2018-03-25T02:41:58.393Z,0.46
2018-03-25T02:42:58.391Z,0.47
2018-03-25T02:43:58.174Z,0.35
2018-03-25T02:44:58.342Z,0.41
2018-03-25T02:45:58.076Z,0.41
2018-03-25T02:46:58.311Z,0.42
2018-03-25T02:47:58.294Z,0.39
2018-03-25T02:48:58.023Z,0.46
2018-03-25T02:49:58.310Z,0.35
2018-03-25T02:50:58.497Z,0.33
2018-03-25T02:51:57.976Z,0.44
2018-03-25T02:52:58.217Z,0.38
2018-03-25T02:53:57.954Z,0.38
2018-03-25T02:54:57.674Z,0.38
2018-03-25T02:55:58.168Z,0.41
2018-03-25T02:56:58.155Z,0.39
2018-03-25T02:57:58.134Z,0.33
2018-03-25T02:58:58.126Z,0.41
2018-03-25T02:59:58.113Z,0.38
2018-03-25T03:00:58.095Z,0.39
2018-03-25T03:01:57.820Z,0.39
2018-03-25T03:02:58.059Z,0.38
2018-03-25T03:03:57.790Z,0.38
2018-03-25T03:04:57.788Z,0.39
2018-03-25T03:05:58.027Z,0.41
2018-03-25T03:06:57.739Z,0.39
2018-03-25T03:07:57.983Z,0.41
2018-03-25T03:08:57.711Z,0.41
2018-03-25T03:09:57.945Z,0.35
2018-03-25T03:10:57.932Z,0.35
2018-03-25T03:11:57.916Z,0.47
2018-03-25T03:12:57.645Z,0.42
2018-03-25T03:13:57.887Z,0.36
2018-03-25T03:14:57.639Z,0.41
2018-03-25T03:15:57.855Z,0.41
2018-03-25T03:16:57.842Z,0.39
2018-03-25T03:17:57.568Z,0.42
2018-03-25T03:18:57.804Z,0.39
2018-03-25T03:19:57.534Z,0.46
2018-03-25T03:20:57.520Z,0.46
2018-03-25T03:21:58.013Z,0.39
2018-03-25T03:22:57.739Z,0.38
2018-03-25T03:23:57.737Z,0.46
2018-03-25T03:24:57.709Z,0.42
2018-03-25T03:25:57.692Z,0.44
2018-03-25T03:26:57.679Z,0.47
2018-03-25T03:27:57.409Z,0.38
2018-03-25T03:28:57.655Z,0.36
2018-03-25T03:29:57.839Z,0.47
2018-03-25T03:30:57.628Z,0.46
2018-03-25T03:31:57.607Z,0.39
2018-03-25T03:32:57.335Z,0.42
2018-03-25T03:33:57.315Z,0.41
2018-03-25T03:34:57.553Z,0.38
2018-03-25T03:35:57.538Z,0.36
2018-03-25T03:36:57.270Z,0.41
2018-03-25T03:37:57.510Z,0.46
2018-03-25T03:38:57.493Z,0.36
2018-03-25T03:39:57.221Z,0.36
2018-03-25T03:40:57.460Z,0.41
2018-03-25T03:41:57.448Z,0.39
2018-03-25T03:42:57.429Z,0.39
2018-03-25T03:43:57.415Z,0.41
2018-03-25T03:44:57.394Z,0.38
2018-03-25T03:45:57.397Z,0.35
2018-03-25T03:46:57.364Z,0.39
2018-03-25T03:47:57.095Z,0.36
2018-03-25T03:48:57.080Z,0.36
2018-03-25T03:49:57.315Z,0.26
2018-03-25T03:50:57.300Z,0.33
2018-03-25T03:51:57.290Z,0.29
2018-03-25T03:52:57.517Z,0.36
2018-03-25T03:53:57.001Z,0.35
2018-03-25T03:54:57.236Z,0.32
2018-03-25T03:55:57.222Z,0.32
2018-03-25T03:56:57.213Z,0.35
2018-03-25T03:57:56.943Z,0.29
2018-03-25T03:58:56.925Z,0.33
2018-03-25T03:59:56.920Z,0.35
2018-03-25T04:00:57.142Z,0.29
2018-03-25T04:01:57.142Z,0.28
2018-03-25T04:02:57.115Z,0.29
2018-03-25T04:03:57.095Z,0.26
2018-03-25T04:04:57.079Z,0.24
2018-03-25T04:05:57.074Z,0.26
2018-03-25T04:06:57.098Z,0.28
2018-03-25T04:07:56.781Z,0.33
2018-03-25T04:08:57.020Z,0.33
2018-03-25T04:09:57.005Z,0.24
2018-03-25T04:10:56.995Z,0.26
2018-03-25T04:11:56.718Z,0.24
2018-03-25T04:12:56.700Z,0.36
2018-03-25T04:13:56.942Z,0.26
2018-03-25T04:14:56.922Z,0.26
2018-03-25T04:15:56.654Z,0.26
2018-03-25T04:16:56.894Z,0.24
2018-03-25T04:17:56.873Z,0.23
2018-03-25T04:18:56.611Z,0.23
2018-03-25T04:19:56.859Z,0.2
2018-03-25T04:20:56.847Z,0.2
2018-03-25T04:21:56.813Z,0.18
2018-03-25T04:22:56.796Z,0.2
2018-03-25T04:23:57.049Z,0.18
2018-03-25T04:24:56.771Z,0.24
2018-03-25T04:25:56.751Z,0.17
2018-03-25T04:26:56.739Z,0.23
2018-03-25T04:27:56.212Z,0.23
2018-03-25T04:28:56.699Z,0.18
2018-03-25T04:29:56.684Z,0.21
2018-03-25T04:30:56.671Z,0.14
2018-03-25T04:31:56.401Z,0.21
2018-03-25T04:32:56.637Z,0.11
2018-03-25T04:33:56.624Z,0.15
2018-03-25T04:34:56.607Z,0.18
2018-03-25T04:35:56.336Z,0.17
2018-03-25T04:36:56.574Z,0.17
2018-03-25T04:37:56.560Z,0.18
2018-03-25T04:38:56.545Z,0.11
2018-03-25T04:39:56.532Z,0.17
2018-03-25T04:40:56.511Z,0.13
2018-03-25T04:41:56.494Z,0.11
2018-03-25T04:42:56.484Z,0.1
2018-03-25T04:43:56.466Z,0.14
2018-03-25T04:44:56.447Z,0.18
2018-03-25T04:45:56.432Z,0.21
2018-03-25T04:46:56.162Z,0.17
2018-03-25T04:47:56.402Z,0.15
2018-03-25T04:48:55.877Z,0.17
2018-03-25T04:49:56.372Z,0.15
2018-03-25T04:50:56.097Z,0.26
2018-03-25T04:51:56.084Z,0.2
2018-03-25T04:52:56.318Z,0.24
2018-03-25T04:53:56.303Z,0.2
2018-03-25T04:54:56.564Z,0.24
2018-03-25T04:55:56.273Z,0.2
2018-03-25T04:56:56.265Z,0.21
2018-03-25T04:57:56.248Z,0.2
2018-03-25T04:58:56.222Z,0.26
2018-03-25T04:59:56.211Z,0.2
2018-03-25T05:00:56.194Z,0.23
2018-03-25T05:01:56.193Z,0.29
2018-03-25T05:02:56.187Z,0.23
2018-03-25T05:03:56.150Z,0.21
2018-03-25T05:04:55.876Z,0.24
2018-03-25T05:05:55.864Z,0.28
2018-03-25T05:06:56.100Z,0.24
2018-03-25T05:07:56.082Z,0.28
2018-03-25T05:08:55.812Z,0.24
2018-03-25T05:09:56.048Z,0.2
2018-03-25T05:10:56.034Z,0.26
2018-03-25T05:11:56.018Z,0.28
2018-03-25T05:12:55.754Z,0.32
2018-03-25T05:13:55.986Z,0.33
2018-03-25T05:14:55.975Z,0.33
2018-03-25T05:15:55.959Z,0.41
2018-03-25T05:16:55.685Z,0.47
2018-03-25T05:17:55.670Z,0.47
2018-03-25T05:18:55.907Z,0.51
2018-03-25T05:19:55.904Z,0.58
2018-03-25T05:20:55.932Z,0.6
2018-03-25T05:21:55.866Z,0.68
2018-03-25T05:22:55.854Z,0.65
2018-03-25T05:23:55.827Z,0.83
2018-03-25T05:24:55.560Z,0.79
2018-03-25T05:25:56.048Z,0.84
2018-03-25T05:26:55.538Z,0.78
2018-03-25T05:27:55.766Z,0.91
2018-03-25T05:28:55.752Z,0.96
2018-03-25T05:29:55.482Z,1.05
2018-03-25T05:30:55.728Z,1
2018-03-25T05:31:55.451Z,1.15
2018-03-25T05:32:55.435Z,1.18
2018-03-25T05:33:55.421Z,1.27
2018-03-25T05:34:55.404Z,1.32
2018-03-25T05:35:55.648Z,1.4
2018-03-25T05:36:55.630Z,1.5
2018-03-25T05:37:55.643Z,1.58
2018-03-25T05:38:55.346Z,1.62
2018-03-25T05:39:55.584Z,1.7
2018-03-25T05:40:55.316Z,1.81
2018-03-25T05:41:55.300Z,1.77
2018-03-25T05:42:55.540Z,1.9
2018-03-25T05:43:55.583Z,2.06
2018-03-25T05:44:55.520Z,2.05
2018-03-25T05:45:55.244Z,2.18
2018-03-25T05:46:55.482Z,2.38
2018-03-25T05:47:55.216Z,2.39
2018-03-25T05:48:55.453Z,2.48
2018-03-25T05:49:55.438Z,2.57
2018-03-25T05:50:55.425Z,2.67
2018-03-25T05:51:55.410Z,2.81
2018-03-25T05:52:55.406Z,2.93
2018-03-25T05:53:55.399Z,3.03
2018-03-25T05:54:55.370Z,3.08
2018-03-25T05:55:54.853Z,3.18
2018-03-25T05:56:55.590Z,3.29
2018-03-25T05:57:55.328Z,3.43
2018-03-25T05:58:55.332Z,3.5
2018-03-25T05:59:55.358Z,3.75
2018-03-25T06:00:55.044Z,3.72
2018-03-25T06:01:55.288Z,3.9
2018-03-25T06:02:55.012Z,4.06
2018-03-25T06:03:54.998Z,4.14
2018-03-25T06:04:55.240Z,4.23
2018-03-25T06:05:54.974Z,4.29
2018-03-25T06:06:55.220Z,4.4
2018-03-25T06:07:54.949Z,4.51
2018-03-25T06:08:55.191Z,4.48
2018-03-25T06:09:55.183Z,4.59
2018-03-25T06:10:54.664Z,4.75
2018-03-25T06:11:55.170Z,4.78
2018-03-25T06:12:55.145Z,4.86
2018-03-25T06:13:55.133Z,4.96
2018-03-25T06:14:54.614Z,5.03
2018-03-25T06:15:55.269Z,5.25
2018-03-25T06:16:55.102Z,5.25
2018-03-25T06:17:55.088Z,5.42
2018-03-25T06:18:55.081Z,5.49
2018-03-25T06:19:55.071Z,5.63
2018-03-25T06:20:55.071Z,5.65
2018-03-25T06:21:54.808Z,5.86
2018-03-25T06:22:55.032Z,5.86
2018-03-25T06:23:54.772Z,5.97
2018-03-25T06:24:54.759Z,6.06
2018-03-25T06:25:54.748Z,6.27
2018-03-25T06:26:54.990Z,6.38
2018-03-25T06:27:54.981Z,6.52
2018-03-25T06:28:54.975Z,6.67
2018-03-25T06:29:54.706Z,6.81
2018-03-25T06:30:54.951Z,6.84
2018-03-25T06:31:54.951Z,6.94
2018-03-25T06:32:54.681Z,7.17
2018-03-25T06:33:54.924Z,7.17
2018-03-25T06:34:54.913Z,7.28
2018-03-25T06:35:54.650Z,7.37
2018-03-25T06:36:54.892Z,7.55
2018-03-25T06:37:54.933Z,7.58
2018-03-25T06:38:54.875Z,7.68
2018-03-25T06:39:54.614Z,7.8
2018-03-25T06:40:54.907Z,7.87
2018-03-25T06:41:54.859Z,8.08
2018-03-25T06:42:54.590Z,8.16
2018-03-25T06:43:54.833Z,8.22
2018-03-25T06:44:54.577Z,8.43
2018-03-25T06:45:54.814Z,8.4
2018-03-25T06:46:54.823Z,8.61
2018-03-25T06:47:54.801Z,8.62
2018-03-25T06:48:54.800Z,8.79
2018-03-25T06:49:54.809Z,8.98
2018-03-25T06:50:54.782Z,9.02
2018-03-25T06:51:54.768Z,9.18
2018-03-25T06:52:54.761Z,9.33
2018-03-25T06:53:54.761Z,9.36
2018-03-25T06:54:54.748Z,9.47
2018-03-25T06:55:54.748Z,9.57
2018-03-25T06:56:54.480Z,9.68
2018-03-25T06:57:54.726Z,9.74
2018-03-25T06:58:54.725Z,9.86
2018-03-25T06:59:54.464Z,10.02
2018-03-25T07:00:54.726Z,10.12
2018-03-25T07:01:54.735Z,10.25
2018-03-25T07:02:54.701Z,10.22
2018-03-25T07:03:54.692Z,10.34
2018-03-25T07:04:54.686Z,10.34
2018-03-25T07:05:54.686Z,10.45
2018-03-25T07:06:54.685Z,10.51
2018-03-25T07:07:54.722Z,10.67
2018-03-25T07:08:54.413Z,10.68
2018-03-25T07:09:54.663Z,10.88
2018-03-25T07:10:54.404Z,11.17
2018-03-25T07:11:54.404Z,11.29
2018-03-25T07:12:54.647Z,11.36
2018-03-25T07:13:54.390Z,11.35
2018-03-25T07:14:54.636Z,11.32
2018-03-25T07:15:54.383Z,11.39
2018-03-25T07:16:54.630Z,11.57
2018-03-25T07:17:54.371Z,11.65
2018-03-25T07:18:54.639Z,11.76
2018-03-25T07:19:54.364Z,11.88
2018-03-25T07:20:54.613Z,11.94
2018-03-25T07:21:54.613Z,12.04
2018-03-25T07:22:54.613Z,12.05
2018-03-25T07:23:54.610Z,12.13
2018-03-25T07:24:54.598Z,12.34
2018-03-25T07:25:54.597Z,12.35
2018-03-25T07:26:54.663Z,12.49
2018-03-25T07:27:54.339Z,12.72
2018-03-25T07:28:54.591Z,12.74
2018-03-25T07:29:54.336Z,12.82
2018-03-25T07:30:54.834Z,13
2018-03-25T07:31:54.592Z,13.08
2018-03-25T07:32:54.598Z,13.23
2018-03-25T07:33:54.577Z,13.26
2018-03-25T07:34:54.594Z,13.46
2018-03-25T07:35:54.577Z,13.51
2018-03-25T07:36:54.574Z,13.62
2018-03-25T07:37:54.580Z,13.73
2018-03-25T07:38:54.316Z,13.82
2018-03-25T07:39:54.061Z,13.88
2018-03-25T07:40:54.572Z,14.04
2018-03-25T07:41:54.582Z,14.18
2018-03-25T07:42:54.564Z,14.36
2018-03-25T07:43:54.567Z,14.36
2018-03-25T07:44:54.574Z,14.4
2018-03-25T07:45:54.311Z,14.52
2018-03-25T07:46:54.564Z,14.58
2018-03-25T07:47:54.579Z,14.64
2018-03-25T07:48:54.560Z,14.91
2018-03-25T07:49:54.068Z,14.86
2018-03-25T07:50:54.308Z,14.81
2018-03-25T07:51:54.321Z,14.78
2018-03-25T07:52:54.559Z,14.81
2018-03-25T07:53:54.562Z,14.86
2018-03-25T07:54:54.560Z,14.86
2018-03-25T07:55:54.621Z,14.84
2018-03-25T07:56:54.556Z,14.72
2018-03-25T07:57:54.306Z,14.65
2018-03-25T07:58:54.305Z,14.57
2018-03-25T07:59:54.555Z,14.52
2018-03-25T08:00:54.559Z,14.55
2018-03-25T08:01:54.809Z,14.47
2018-03-25T08:02:54.553Z,14.47
2018-03-25T08:03:54.662Z,14.28
2018-03-25T08:04:54.551Z,14.33
2018-03-25T08:05:54.302Z,14.25
2018-03-25T08:06:54.303Z,14.35
2018-03-25T08:07:54.300Z,14.21
2018-03-25T08:08:54.553Z,14.1
2018-03-25T08:09:54.293Z,13.91
2018-03-25T08:10:54.544Z,13.66
2018-03-25T08:11:54.844Z,13.51
2018-03-25T08:12:54.545Z,13.32
2018-03-25T08:13:54.558Z,13.1
2018-03-25T08:14:54.548Z,12.95
2018-03-25T08:15:54.541Z,12.74
2018-03-25T08:16:54.286Z,12.57
2018-03-25T08:17:54.542Z,12.46
2018-03-25T08:18:54.536Z,12.34
2018-03-25T08:19:54.280Z,12.17
2018-03-25T08:20:54.531Z,11.95
2018-03-25T08:21:54.528Z,11.72
2018-03-25T08:22:54.529Z,11.54
2018-03-25T08:23:54.274Z,11.4
2018-03-25T08:24:54.524Z,11.29
2018-03-25T08:25:54.263Z,11.09
2018-03-25T08:26:54.521Z,11.02
2018-03-25T08:27:54.566Z,10.86
2018-03-25T08:28:54.508Z,10.68
2018-03-25T08:29:54.501Z,10.6
2018-03-25T08:30:54.258Z,10.51
2018-03-25T08:31:54.499Z,10.59
2018-03-25T08:32:54.742Z,10.6
2018-03-25T08:33:54.589Z,10.61
2018-03-25T08:34:54.480Z,10.63
2018-03-25T08:35:54.217Z,10.48
2018-03-25T08:36:54.466Z,10.48
2018-03-25T08:37:54.206Z,10.34
2018-03-25T08:38:54.202Z,10.25
2018-03-25T08:39:54.196Z,10.09
2018-03-25T08:40:53.938Z,10.08
2018-03-25T08:41:54.437Z,10.11
2018-03-25T08:42:54.443Z,9.99
2018-03-25T08:43:54.433Z,9.99
2018-03-25T08:44:54.420Z,10.01
2018-03-25T08:45:54.414Z,9.9
2018-03-25T08:46:54.409Z,9.96
2018-03-25T08:47:54.416Z,9.94
2018-03-25T08:48:54.140Z,9.87
2018-03-25T08:49:54.426Z,9.89
2018-03-25T08:50:54.127Z,9.86
2018-03-25T08:51:54.377Z,9.79
2018-03-25T08:52:54.382Z,9.89
2018-03-25T08:53:54.361Z,9.84
2018-03-25T08:54:54.354Z,9.86
2018-03-25T08:55:53.840Z,9.79
2018-03-25T08:56:54.340Z,9.83
2018-03-25T08:57:54.334Z,9.87
2018-03-25T08:58:54.326Z,9.83
2018-03-25T08:59:54.064Z,9.79
2018-03-25T09:00:54.327Z,9.94
2018-03-25T09:01:54.304Z,9.9
2018-03-25T09:02:54.306Z,9.94
2018-03-25T09:03:54.639Z,10.05
2018-03-25T09:04:54.041Z,10.05
2018-03-25T09:05:54.281Z,10.14
2018-03-25T09:06:54.278Z,10.11
2018-03-25T09:07:54.016Z,10.08
2018-03-25T09:08:54.253Z,10.08
2018-03-25T09:09:54.007Z,10.05
2018-03-25T09:10:53.987Z,10.07
2018-03-25T09:11:54.240Z,10.08
2018-03-25T09:12:54.225Z,10.01
2018-03-25T09:13:54.220Z,10.07
2018-03-25T09:14:54.238Z,10.08
2018-03-25T09:15:54.211Z,10.01
2018-03-25T09:16:54.198Z,10.04
2018-03-25T09:17:54.191Z,9.9
2018-03-25T09:18:53.928Z,9.94
2018-03-25T09:19:53.921Z,9.97
2018-03-25T09:20:53.915Z,9.99
2018-03-25T09:21:54.161Z,9.91
2018-03-25T09:22:53.918Z,9.99
2018-03-25T09:23:53.892Z,10.05
2018-03-25T09:24:53.887Z,10.09
2018-03-25T09:25:54.141Z,10.2
2018-03-25T09:26:53.891Z,10.17
2018-03-25T09:27:54.115Z,10.26
2018-03-25T09:28:54.108Z,10.36
2018-03-25T09:29:54.123Z,10.26
2018-03-25T09:30:54.095Z,10.32
2018-03-25T09:31:54.092Z,10.32
2018-03-25T09:32:54.079Z,10.41
2018-03-25T09:33:54.079Z,10.34
2018-03-25T09:34:54.317Z,10.26
2018-03-25T09:35:54.059Z,10.33
2018-03-25T09:36:54.055Z,10.32
2018-03-25T09:37:54.043Z,10.33
2018-03-25T09:38:53.782Z,10.3
2018-03-25T09:39:54.035Z,10.33
2018-03-25T09:40:54.023Z,10.34
2018-03-25T09:41:53.764Z,10.3
2018-03-25T09:42:54.005Z,10.41
2018-03-25T09:43:53.499Z,10.4
2018-03-25T09:44:54.006Z,10.33
2018-03-25T09:45:54.125Z,10.32
2018-03-25T09:46:54.003Z,10.27
2018-03-25T09:47:53.985Z,10.3
2018-03-25T09:48:53.988Z,10.32
2018-03-25T09:49:53.955Z,10.36
2018-03-25T09:50:53.702Z,10.34
2018-03-25T09:51:53.697Z,10.42
2018-03-25T09:52:53.934Z,10.3
2018-03-25T09:53:53.695Z,10.41
2018-03-25T09:54:53.675Z,10.51
2018-03-25T09:55:53.917Z,10.41
2018-03-25T09:56:53.650Z,10.44
2018-03-25T09:57:53.652Z,10.42
2018-03-25T09:58:53.919Z,10.47
2018-03-25T09:59:53.897Z,10.59
2018-03-25T10:00:53.879Z,10.52
2018-03-25T10:01:53.872Z,10.59
2018-03-25T10:02:53.858Z,10.61
2018-03-25T10:03:53.644Z,10.73
2018-03-25T10:04:53.400Z,10.71
2018-03-25T10:05:53.836Z,10.81
2018-03-25T10:06:53.574Z,10.84
2018-03-25T10:07:53.825Z,10.92
2018-03-25T10:08:53.812Z,10.96
2018-03-25T10:09:53.813Z,10.88
2018-03-25T10:10:53.799Z,10.89
2018-03-25T10:11:53.793Z,10.85
2018-03-25T10:12:53.531Z,10.88
2018-03-25T10:13:53.527Z,10.82
2018-03-25T10:14:53.779Z,10.89
2018-03-25T10:15:53.517Z,10.85
2018-03-25T10:16:53.562Z,10.89
2018-03-25T10:17:53.745Z,10.82
2018-03-25T10:18:53.844Z,10.89
2018-03-25T10:19:53.485Z,10.96
2018-03-25T10:20:53.725Z,10.97
2018-03-25T10:21:53.499Z,10.92
2018-03-25T10:22:53.459Z,10.96
2018-03-25T10:23:53.449Z,10.96
2018-03-25T10:24:53.503Z,10.86
2018-03-25T10:25:53.435Z,10.78
2018-03-25T10:26:53.681Z,10.78
2018-03-25T10:27:53.421Z,10.85
2018-03-25T10:28:53.667Z,10.79
2018-03-25T10:29:53.410Z,10.78
2018-03-25T10:30:53.651Z,10.79
2018-03-25T10:31:53.659Z,10.85
2018-03-25T10:32:53.641Z,10.76
2018-03-25T10:33:53.135Z,10.85
2018-03-25T10:34:53.373Z,10.86
2018-03-25T10:35:53.686Z,10.86
2018-03-25T10:36:53.608Z,10.85
2018-03-25T10:37:53.349Z,10.94
2018-03-25T10:38:53.621Z,11.07
2018-03-25T10:39:53.600Z,11.03
2018-03-25T10:40:53.323Z,11.09
2018-03-25T10:41:53.318Z,11.09
2018-03-25T10:42:53.320Z,11.14
2018-03-25T10:43:53.558Z,11.1
2018-03-25T10:44:53.554Z,11.06
2018-03-25T10:45:53.542Z,11.18
2018-03-25T10:46:53.295Z,11.15
2018-03-25T10:47:53.279Z,11.17
2018-03-25T10:48:53.528Z,11.25
2018-03-25T10:49:53.274Z,11.21
2018-03-25T10:50:53.509Z,11.24
2018-03-25T10:51:53.499Z,11.27
2018-03-25T10:52:53.249Z,11.28
2018-03-25T10:53:53.493Z,11.25
2018-03-25T10:54:53.498Z,11.32
2018-03-25T10:55:53.471Z,11.32
2018-03-25T10:56:53.461Z,11.21
2018-03-25T10:57:53.457Z,11.37
2018-03-25T10:58:53.446Z,11.36
2018-03-25T10:59:52.933Z,11.42
2018-03-25T11:00:53.180Z,11.39
2018-03-25T11:01:53.425Z,11.46
2018-03-25T11:02:53.439Z,11.43
2018-03-25T11:03:53.157Z,11.44
2018-03-25T11:04:53.403Z,11.52
2018-03-25T11:05:53.145Z,11.55
2018-03-25T11:06:53.391Z,11.58
2018-03-25T11:07:53.130Z,11.52
2018-03-25T11:08:53.395Z,11.75
2018-03-25T11:09:53.120Z,11.67
2018-03-25T11:10:53.361Z,11.67
2018-03-25T11:11:53.365Z,11.7
2018-03-25T11:12:53.100Z,11.52
2018-03-25T11:13:53.648Z,11.67
2018-03-25T11:14:52.827Z,11.58
2018-03-25T11:15:53.327Z,11.54
2018-03-25T11:16:53.334Z,11.62
2018-03-25T11:17:53.330Z,11.64
2018-03-25T11:18:53.311Z,11.64
2018-03-25T11:19:53.303Z,11.7
2018-03-25T11:20:53.294Z,11.67
2018-03-25T11:21:53.303Z,11.73
2018-03-25T11:22:53.296Z,11.7
2018-03-25T11:23:53.277Z,11.78
2018-03-25T11:24:53.266Z,11.79
2018-03-25T11:25:53.264Z,11.8
2018-03-25T11:26:53.255Z,11.86
2018-03-25T11:27:53.242Z,11.83
2018-03-25T11:28:53.235Z,11.95
2018-03-25T11:29:53.234Z,11.9
2018-03-25T11:30:53.222Z,11.79
2018-03-25T11:31:53.019Z,11.86
2018-03-25T11:32:52.955Z,11.91
2018-03-25T11:33:52.961Z,11.83
2018-03-25T11:34:53.203Z,11.91
2018-03-25T11:35:52.682Z,11.95
2018-03-25T11:36:52.965Z,11.8
2018-03-25T11:37:53.184Z,11.75
2018-03-25T11:38:53.166Z,11.79
2018-03-25T11:39:53.409Z,11.8
2018-03-25T11:40:53.156Z,11.82
2018-03-25T11:41:53.154Z,11.82
2018-03-25T11:42:52.885Z,11.86
2018-03-25T11:43:53.138Z,11.78
2018-03-25T11:44:53.133Z,11.88
2018-03-25T11:45:53.117Z,11.83
2018-03-25T11:46:53.120Z,11.98
2018-03-25T11:47:53.113Z,11.98
2018-03-25T11:48:53.098Z,11.98
2018-03-25T11:49:52.854Z,12.09
2018-03-25T11:50:53.084Z,12.1
2018-03-25T11:51:53.078Z,12.04
2018-03-25T11:52:52.817Z,12.01
2018-03-25T11:53:53.131Z,12.13
2018-03-25T11:54:52.805Z,12.14
2018-03-25T11:55:52.796Z,12.17
2018-03-25T11:56:53.045Z,12.23
2018-03-25T11:57:52.782Z,12.23
2018-03-25T11:58:53.036Z,12.13
2018-03-25T11:59:53.023Z,12.2
2018-03-25T12:00:53.084Z,12.2
2018-03-25T12:01:53.018Z,12.21
2018-03-25T12:02:53.024Z,12.17
2018-03-25T12:03:52.998Z,12.28
2018-03-25T12:04:52.988Z,12.29
2018-03-25T12:05:52.733Z,12.34
2018-03-25T12:06:52.993Z,12.31
2018-03-25T12:07:52.724Z,12.38
2018-03-25T12:08:52.976Z,12.32
2018-03-25T12:09:52.958Z,12.35
2018-03-25T12:10:53.261Z,12.17
2018-03-25T12:11:53.005Z,12.24
2018-03-25T12:12:52.939Z,12.16
2018-03-25T12:13:52.675Z,12.19
2018-03-25T12:14:52.940Z,12.21
2018-03-25T12:15:52.408Z,12.21
2018-03-25T12:16:52.917Z,12.34
2018-03-25T12:17:52.916Z,12.24
2018-03-25T12:18:52.663Z,12.28
2018-03-25T12:19:52.637Z,12.29
2018-03-25T12:20:52.635Z,12.24
2018-03-25T12:21:52.872Z,12.35
2018-03-25T12:22:52.870Z,12.23
2018-03-25T12:23:52.874Z,12.24
2018-03-25T12:24:52.858Z,12.35
2018-03-25T12:25:52.596Z,12.35
2018-03-25T12:26:52.847Z,12.39
2018-03-25T12:27:52.837Z,12.39
2018-03-25T12:28:52.839Z,12.49
2018-03-25T12:29:52.830Z,12.46
2018-03-25T12:30:52.822Z,12.46
2018-03-25T12:31:52.568Z,12.49
2018-03-25T12:32:52.555Z,12.46
2018-03-25T12:33:52.800Z,12.46
2018-03-25T12:34:52.792Z,12.42
2018-03-25T12:35:52.276Z,12.47
2018-03-25T12:36:52.522Z,12.47
2018-03-25T12:37:52.784Z,12.46
2018-03-25T12:38:52.765Z,12.52
2018-03-25T12:39:52.513Z,12.56
2018-03-25T12:40:52.765Z,12.56
2018-03-25T12:41:52.990Z,12.56
2018-03-25T12:42:52.743Z,12.7
2018-03-25T12:43:52.222Z,12.64
2018-03-25T12:44:52.476Z,12.67
2018-03-25T12:45:52.713Z,12.7
2018-03-25T12:46:52.483Z,12.68
2018-03-25T12:47:52.450Z,12.68
2018-03-25T12:48:52.696Z,12.74
2018-03-25T12:49:52.781Z,12.6
2018-03-25T12:50:52.685Z,12.74
2018-03-25T12:51:52.431Z,12.68
2018-03-25T12:52:52.716Z,12.74
2018-03-25T12:53:52.157Z,12.7
2018-03-25T12:54:52.659Z,12.77
2018-03-25T12:55:52.653Z,12.72
2018-03-25T12:56:52.398Z,12.79
2018-03-25T12:57:52.638Z,12.85
2018-03-25T12:58:52.645Z,12.78
2018-03-25T12:59:52.634Z,12.9
2018-03-25T13:00:52.622Z,12.86
2018-03-25T13:01:52.616Z,12.87
2018-03-25T13:02:52.626Z,12.83
2018-03-25T13:03:52.617Z,12.78
2018-03-25T13:04:52.598Z,12.86
2018-03-25T13:05:52.617Z,12.97
2018-03-25T13:06:52.585Z,13
2018-03-25T13:07:52.343Z,12.95
2018-03-25T13:08:52.580Z,13.01